sensor_id;sensor_type;location;lat;lon;timestamp;pressure;altitude;pressure_sealevel;temperature;humidity
48386;BME280;34644;47.964;7.982;2023-10-31T00:00:13;95300.41;;;17.68;71.46
48386;BME280;34644;47.964;7.982;2023-10-31T00:07:14;95298.53;;;17.69;70.87
48386;BME280;34644;47.964;7.982;2023-10-31T00:14:14;95302.13;;;17.64;71.57
48386;BME280;34644;47.964;7.982;2023-10-31T00:21:14;95310.59;;;17.66;70.71
48386;BME280;34644;47.964;7.982;2023-10-31T00:28:15;95309.78;;;17.66;70.65
48386;BME280;34644;47.964;7.982;2023-10-31T00:35:15;95309.03;;;17.65;70.42
48386;BME280;34644;47.964;7.982;2023-10-31T00:42:16;95302.91;;;17.65;70.61
48386;BME280;34644;47.964;7.982;2023-10-31T00:49:17;95306.66;;;17.64;70.53
48386;BME280;34644;47.964;7.982;2023-10-31T00:56:17;95302.41;;;17.63;70.36
48386;BME280;34644;47.964;7.982;2023-10-31T01:03:17;95293.66;;;17.62;70.31
48386;BME280;34644;47.964;7.982;2023-10-31T01:10:18;95285.66;;;17.62;70.03
48386;BME280;34644;47.964;7.982;2023-10-31T01:17:18;95295.53;;;17.62;70.05
48386;BME280;34644;47.964;7.982;2023-10-31T01:24:18;95317.16;;;17.60;70.00
48386;BME280;34644;47.964;7.982;2023-10-31T01:31:19;95323.56;;;17.59;69.82
48386;BME280;34644;47.964;7.982;2023-10-31T01:38:19;95305.25;;;17.58;69.82
48386;BME280;34644;47.964;7.982;2023-10-31T01:45:19;95305.25;;;17.58;69.83
48386;BME280;34644;47.964;7.982;2023-10-31T01:52:19;95309.78;;;17.57;69.71
48386;BME280;34644;47.964;7.982;2023-10-31T01:59:20;95324.97;;;17.57;69.76
48386;BME280;34644;47.964;7.982;2023-10-31T02:06:20;95336.75;;;17.56;69.61
48386;BME280;34644;47.964;7.982;2023-10-31T02:13:22;95346.59;;;17.55;69.61
48386;BME280;34644;47.964;7.982;2023-10-31T02:20:22;95358.66;;;17.52;69.66
48386;BME280;34644;47.964;7.982;2023-10-31T02:27:22;95379.47;;;17.50;69.55
48386;BME280;34644;47.964;7.982;2023-10-31T02:34:23;95393.91;;;17.49;69.58
48386;BME280;34644;47.964;7.982;2023-10-31T02:41:23;95408.00;;;17.50;69.75
48386;BME280;34644;47.964;7.982;2023-10-31T02:48:23;95402.66;;;17.50;69.51
48386;BME280;34644;47.964;7.982;2023-10-31T02:55:24;95420.53;;;17.49;69.54
48386;BME280;34644;47.964;7.982;2023-10-31T03:02:25;95421.63;;;17.48;69.45
48386;BME280;34644;47.964;7.982;2023-10-31T03:09:25;95419.25;;;17.47;69.45
48386;BME280;34644;47.964;7.982;2023-10-31T03:16:25;95426.78;;;17.45;69.43
48386;BME280;34644;47.964;7.982;2023-10-31T03:23:26;95446.50;;;17.44;69.34
48386;BME280;34644;47.964;7.982;2023-10-31T03:30:26;95453.41;;;17.45;69.37
48386;BME280;34644;47.964;7.982;2023-10-31T03:37:26;95451.06;;;17.43;69.32
48386;BME280;34644;47.964;7.982;2023-10-31T03:44:27;95452.63;;;17.44;69.31
48386;BME280;34644;47.964;7.982;2023-10-31T03:51:28;95453.72;;;17.43;69.35
48386;BME280;34644;47.964;7.982;2023-10-31T03:58:28;95462.78;;;17.42;69.18
48386;BME280;34644;47.964;7.982;2023-10-31T04:05:29;95463.91;;;17.41;69.22
48386;BME280;34644;47.964;7.982;2023-10-31T04:12:29;95472.97;;;17.40;69.26
48386;BME280;34644;47.964;7.982;2023-10-31T04:19:30;95474.56;;;17.41;69.18
48386;BME280;34644;47.964;7.982;2023-10-31T04:26:30;95485.81;;;17.38;68.49
48386;BME280;34644;47.964;7.982;2023-10-31T04:33:30;95490.75;;;14.57;59.57
48386;BME280;34644;47.964;7.982;2023-10-31T04:40:31;95484.81;;;16.38;60.67
48386;BME280;34644;47.964;7.982;2023-10-31T04:47:31;95490.94;;;16.75;63.07
48386;BME280;34644;47.964;7.982;2023-10-31T04:54:31;95494.84;;;16.92;64.56
48386;BME280;34644;47.964;7.982;2023-10-31T05:01:31;95500.75;;;17.03;65.50
48386;BME280;34644;47.964;7.982;2023-10-31T05:08:32;95502.06;;;17.14;65.90
48386;BME280;34644;47.964;7.982;2023-10-31T05:15:32;95508.56;;;17.22;66.31
48386;BME280;34644;47.964;7.982;2023-10-31T05:22:33;95507.66;;;17.26;66.60
48386;BME280;34644;47.964;7.982;2023-10-31T05:29:33;95524.00;;;17.33;66.54
48386;BME280;34644;47.964;7.982;2023-10-31T05:36:33;95522.91;;;17.34;66.98
48386;BME280;34644;47.964;7.982;2023-10-31T05:43:34;95511.34;;;17.39;67.00
48386;BME280;34644;47.964;7.982;2023-10-31T05:50:34;95494.28;;;17.40;67.36
48386;BME280;34644;47.964;7.982;2023-10-31T05:57:34;95514.69;;;17.45;67.16
48386;BME280;34644;47.964;7.982;2023-10-31T06:04:34;95509.66;;;17.43;67.21
48386;BME280;34644;47.964;7.982;2023-10-31T06:11:35;95529.56;;;17.46;67.35
48386;BME280;34644;47.964;7.982;2023-10-31T06:18:37;95534.59;;;17.47;67.38
48386;BME280;34644;47.964;7.982;2023-10-31T06:25:37;95548.69;;;17.48;67.33
48386;BME280;34644;47.964;7.982;2023-10-31T06:32:38;95562.78;;;17.48;67.41
48386;BME280;34644;47.964;7.982;2023-10-31T06:39:40;95568.91;;;17.49;67.41
48386;BME280;34644;47.964;7.982;2023-10-31T06:46:41;95573.91;;;17.50;67.48
48386;BME280;34644;47.964;7.982;2023-10-31T06:53:41;95577.41;;;17.51;67.48
48386;BME280;34644;47.964;7.982;2023-10-31T07:00:41;95586.16;;;17.51;67.52
48386;BME280;34644;47.964;7.982;2023-10-31T07:07:41;95594.16;;;17.51;67.40
48386;BME280;34644;47.964;7.982;2023-10-31T07:14:42;95595.44;;;17.54;67.42
48386;BME280;34644;47.964;7.982;2023-10-31T07:21:42;95594.75;;;17.71;66.81
48386;BME280;34644;47.964;7.982;2023-10-31T07:28:42;95604.81;;;17.74;66.47
48386;BME280;34644;47.964;7.982;2023-10-31T07:35:43;95610.44;;;17.72;66.83
48386;BME280;34644;47.964;7.982;2023-10-31T07:42:43;95616.06;;;17.71;67.03
48386;BME280;34644;47.964;7.982;2023-10-31T07:49:43;95624.56;;;17.73;66.55
48386;BME280;34644;47.964;7.982;2023-10-31T07:56:44;95630.31;;;17.66;66.97
48386;BME280;34644;47.964;7.982;2023-10-31T08:03:47;95626.72;;;17.71;66.63
48386;BME280;34644;47.964;7.982;2023-10-31T08:10:47;95645.06;;;17.72;66.53
48386;BME280;34644;47.964;7.982;2023-10-31T08:17:48;95648.84;;;17.71;66.45
48386;BME280;34644;47.964;7.982;2023-10-31T08:24:48;95644.72;;;17.65;66.81
48386;BME280;34644;47.964;7.982;2023-10-31T08:31:48;95647.69;;;17.64;66.62
48386;BME280;34644;47.964;7.982;2023-10-31T08:38:49;95657.28;;;17.65;66.59
48386;BME280;34644;47.964;7.982;2023-10-31T08:45:49;95665.56;;;17.63;66.73
48386;BME280;34644;47.964;7.982;2023-10-31T08:52:49;95669.78;;;17.64;66.46
48386;BME280;34644;47.964;7.982;2023-10-31T08:59:49;95667.13;;;17.64;66.34
48386;BME280;34644;47.964;7.982;2023-10-31T09:06:50;95678.47;;;17.70;66.27
48386;BME280;34644;47.964;7.982;2023-10-31T09:13:50;95669.13;;;17.81;65.24
48386;BME280;34644;47.964;7.982;2023-10-31T09:20:50;95682.34;;;17.86;65.33
48386;BME280;34644;47.964;7.982;2023-10-31T09:27:51;95678.22;;;17.80;68.22
48386;BME280;34644;47.964;7.982;2023-10-31T09:34:51;95675.44;;;17.85;68.47
48386;BME280;34644;47.964;7.982;2023-10-31T09:41:51;95681.16;;;16.92;66.01
48386;BME280;34644;47.964;7.982;2023-10-31T09:48:52;95689.78;;;16.70;67.01
48386;BME280;34644;47.964;7.982;2023-10-31T09:55:52;95689.31;;;16.81;68.20
48386;BME280;34644;47.964;7.982;2023-10-31T10:02:54;95683.09;;;16.72;67.07
48386;BME280;34644;47.964;7.982;2023-10-31T10:09:55;95695.53;;;16.77;67.45
48386;BME280;34644;47.964;7.982;2023-10-31T10:16:56;95695.34;;;16.73;67.35
48386;BME280;34644;47.964;7.982;2023-10-31T10:23:57;95689.31;;;16.68;67.25
48386;BME280;34644;47.964;7.982;2023-10-31T10:30:57;95695.63;;;16.72;65.55
48386;BME280;34644;47.964;7.982;2023-10-31T10:37:58;95697.34;;;16.95;69.16
48386;BME280;34644;47.964;7.982;2023-10-31T10:45:03;95695.56;;;17.05;68.99
48386;BME280;34644;47.964;7.982;2023-10-31T10:59:20;95685.00;;;17.13;70.16
48386;BME280;34644;47.964;7.982;2023-10-31T11:06:20;95698.59;;;17.12;71.41
48386;BME280;34644;47.964;7.982;2023-10-31T11:13:22;95690.03;;;17.15;71.01
48386;BME280;34644;47.964;7.982;2023-10-31T11:20:22;95691.09;;;17.14;71.29
48386;BME280;34644;47.964;7.982;2023-10-31T11:27:24;95698.00;;;17.15;72.24
48386;BME280;34644;47.964;7.982;2023-10-31T11:34:28;95703.50;;;17.18;72.28
48386;BME280;34644;47.964;7.982;2023-10-31T11:41:29;95714.38;;;17.22;72.48
48386;BME280;34644;47.964;7.982;2023-10-31T11:48:49;95714.28;;;17.27;72.81
48386;BME280;34644;47.964;7.982;2023-10-31T11:55:52;95724.81;;;17.32;73.32
48386;BME280;34644;47.964;7.982;2023-10-31T12:02:59;95725.50;;;17.38;73.39
48386;BME280;34644;47.964;7.982;2023-10-31T12:10:00;95726.28;;;17.39;73.82
48386;BME280;34644;47.964;7.982;2023-10-31T12:17:03;95734.16;;;17.44;73.81
48386;BME280;34644;47.964;7.982;2023-10-31T12:24:04;95734.97;;;17.44;74.10
48386;BME280;34644;47.964;7.982;2023-10-31T12:31:05;95745.81;;;17.48;74.10
48386;BME280;34644;47.964;7.982;2023-10-31T12:38:06;95754.56;;;17.48;74.33
48386;BME280;34644;47.964;7.982;2023-10-31T12:45:06;95744.22;;;17.47;74.21
48386;BME280;34644;47.964;7.982;2023-10-31T12:52:06;95766.81;;;17.49;73.97
48386;BME280;34644;47.964;7.982;2023-10-31T12:59:07;95765.03;;;17.45;73.70
48386;BME280;34644;47.964;7.982;2023-10-31T13:06:14;95777.28;;;17.46;73.49
48386;BME280;34644;47.964;7.982;2023-10-31T13:13:15;95775.22;;;17.43;73.47
48386;BME280;34644;47.964;7.982;2023-10-31T13:20:15;95788.53;;;17.43;73.51
48386;BME280;34644;47.964;7.982;2023-10-31T13:27:16;95798.69;;;17.41;73.60
48386;BME280;34644;47.964;7.982;2023-10-31T13:34:17;95804.81;;;17.41;73.18
48386;BME280;34644;47.964;7.982;2023-10-31T13:41:17;95801.63;;;17.39;73.22
48386;BME280;34644;47.964;7.982;2023-10-31T13:48:17;95809.94;;;17.38;72.41
48386;BME280;34644;47.964;7.982;2023-10-31T13:55:19;95812.88;;;17.36;72.78
48386;BME280;34644;47.964;7.982;2023-10-31T14:02:19;95812.88;;;17.36;72.51
48386;BME280;34644;47.964;7.982;2023-10-31T14:09:20;95818.78;;;17.33;72.52
48386;BME280;34644;47.964;7.982;2023-10-31T14:16:21;95824.13;;;17.33;72.52
48386;BME280;34644;47.964;7.982;2023-10-31T14:23:21;95838.25;;;17.33;72.53
48386;BME280;34644;47.964;7.982;2023-10-31T14:30:22;95840.09;;;17.33;71.89
48386;BME280;34644;47.964;7.982;2023-10-31T14:37:22;95848.59;;;17.35;71.74
48386;BME280;34644;47.964;7.982;2023-10-31T14:44:22;95870.69;;;17.35;70.72
48386;BME280;34644;47.964;7.982;2023-10-31T14:51:23;95873.34;;;17.35;71.56
48386;BME280;34644;47.964;7.982;2023-10-31T14:58:23;95895.25;;;17.32;68.04
48386;BME280;34644;47.964;7.982;2023-10-31T15:05:24;95911.22;;;17.32;66.40
48386;BME280;34644;47.964;7.982;2023-10-31T15:12:24;95913.13;;;17.32;69.02
48386;BME280;34644;47.964;7.982;2023-10-31T15:19:24;95917.16;;;17.29;66.95
48386;BME280;34644;47.964;7.982;2023-10-31T15:26:25;95919.81;;;17.29;69.39
48386;BME280;34644;47.964;7.982;2023-10-31T15:33:26;95933.91;;;17.30;66.38
48386;BME280;34644;47.964;7.982;2023-10-31T15:40:27;95948.91;;;17.26;66.56
48386;BME280;34644;47.964;7.982;2023-10-31T15:47:28;95963.56;;;17.23;67.75
48386;BME280;34644;47.964;7.982;2023-10-31T15:54:29;95959.84;;;17.24;65.62
48386;BME280;34644;47.964;7.982;2023-10-31T16:01:29;95968.50;;;17.16;64.99
48386;BME280;34644;47.964;7.982;2023-10-31T16:08:30;95983.66;;;17.15;64.77
48386;BME280;34644;47.964;7.982;2023-10-31T16:15:30;95994.13;;;17.12;64.26
48386;BME280;34644;47.964;7.982;2023-10-31T16:22:30;96009.59;;;17.10;63.93
48386;BME280;34644;47.964;7.982;2023-10-31T16:29:31;96009.06;;;17.08;64.06
48386;BME280;34644;47.964;7.982;2023-10-31T16:36:31;96020.03;;;17.25;64.08
48386;BME280;34644;47.964;7.982;2023-10-31T16:43:32;96038.31;;;17.13;67.48
48386;BME280;34644;47.964;7.982;2023-10-31T16:50:33;96039.88;;;17.14;68.45
48386;BME280;34644;47.964;7.982;2023-10-31T16:57:33;96059.03;;;17.16;68.38
48386;BME280;34644;47.964;7.982;2023-10-31T17:04:33;96068.28;;;17.18;67.95
48386;BME280;34644;47.964;7.982;2023-10-31T17:11:35;96086.88;;;17.24;67.01
48386;BME280;34644;47.964;7.982;2023-10-31T17:18:36;96098.06;;;16.58;63.69
48386;BME280;34644;47.964;7.982;2023-10-31T17:25:36;96106.34;;;16.33;63.21
48386;BME280;34644;47.964;7.982;2023-10-31T17:32:37;96118.78;;;16.13;62.25
48386;BME280;34644;47.964;7.982;2023-10-31T17:39:37;96125.84;;;16.23;64.00
48386;BME280;34644;47.964;7.982;2023-10-31T17:46:37;96146.75;;;16.83;65.85
48386;BME280;34644;47.964;7.982;2023-10-31T17:53:38;96154.56;;;16.98;67.17
48386;BME280;34644;47.964;7.982;2023-10-31T18:00:41;96160.31;;;17.06;67.73
48386;BME280;34644;47.964;7.982;2023-10-31T18:07:41;96170.06;;;17.15;67.96
48386;BME280;34644;47.964;7.982;2023-10-31T18:14:42;96180.66;;;17.21;67.98
48386;BME280;34644;47.964;7.982;2023-10-31T18:21:42;96166.50;;;17.25;67.52
48386;BME280;34644;47.964;7.982;2023-10-31T18:28:44;96186.13;;;17.29;68.10
48386;BME280;34644;47.964;7.982;2023-10-31T18:35:44;96182.09;;;17.32;68.15
48386;BME280;34644;47.964;7.982;2023-10-31T18:42:44;96189.81;;;17.33;67.79
48386;BME280;34644;47.964;7.982;2023-10-31T18:49:44;96203.13;;;17.33;68.62
48386;BME280;34644;47.964;7.982;2023-10-31T18:56:45;96218.00;;;17.34;68.54
48386;BME280;34644;47.964;7.982;2023-10-31T19:03:48;96223.88;;;17.36;68.83
48386;BME280;34644;47.964;7.982;2023-10-31T19:10:48;96216.16;;;17.35;68.96
48386;BME280;34644;47.964;7.982;2023-10-31T19:17:48;96221.19;;;17.36;68.85
48386;BME280;34644;47.964;7.982;2023-10-31T19:24:48;96234.53;;;17.36;69.08
48386;BME280;34644;47.964;7.982;2023-10-31T19:31:50;96243.00;;;17.39;68.90
48386;BME280;34644;47.964;7.982;2023-10-31T19:38:51;96235.59;;;17.35;69.10
48386;BME280;34644;47.964;7.982;2023-10-31T19:45:51;96243.56;;;17.35;69.29
48386;BME280;34644;47.964;7.982;2023-10-31T19:52:51;96244.66;;;17.34;69.14
48386;BME280;34644;47.964;7.982;2023-10-31T19:59:52;96241.41;;;17.38;69.15
48386;BME280;34644;47.964;7.982;2023-10-31T20:06:52;96236.66;;;17.34;69.20
48386;BME280;34644;47.964;7.982;2023-10-31T20:13:52;96237.19;;;17.36;69.21
48386;BME280;34644;47.964;7.982;2023-10-31T20:20:53;96247.03;;;17.36;69.29
48386;BME280;34644;47.964;7.982;2023-10-31T20:27:53;96240.34;;;17.39;69.12
48386;BME280;34644;47.964;7.982;2023-10-31T20:34:53;96239.78;;;17.42;68.98
48386;BME280;34644;47.964;7.982;2023-10-31T20:41:57;96233.38;;;17.43;68.79
48386;BME280;34644;47.964;7.982;2023-10-31T20:48:57;96227.25;;;17.42;68.64
48386;BME280;34644;47.964;7.982;2023-10-31T20:55:58;96195.16;;;17.52;67.32
48386;BME280;34644;47.964;7.982;2023-10-31T21:03:03;96211.91;;;17.53;66.75
48386;BME280;34644;47.964;7.982;2023-10-31T21:10:06;96204.41;;;17.55;66.74
48386;BME280;34644;47.964;7.982;2023-10-31T21:17:07;96193.25;;;17.53;66.56
48386;BME280;34644;47.964;7.982;2023-10-31T21:24:07;96182.59;;;17.53;66.58
48386;BME280;34644;47.964;7.982;2023-10-31T21:31:08;96175.19;;;17.50;66.58
48386;BME280;34644;47.964;7.982;2023-10-31T21:38:08;96161.38;;;17.48;66.40
48386;BME280;34644;47.964;7.982;2023-10-31T21:45:08;96170.44;;;17.47;66.70
48386;BME280;34644;47.964;7.982;2023-10-31T21:52:09;96180.81;;;17.48;66.44
48386;BME280;34644;47.964;7.982;2023-10-31T21:59:09;96176.88;;;17.46;66.56
48386;BME280;34644;47.964;7.982;2023-10-31T22:06:09;96171.25;;;17.47;66.38
48386;BME280;34644;47.964;7.982;2023-10-31T22:13:10;96168.59;;;17.47;66.44
48386;BME280;34644;47.964;7.982;2023-10-31T22:20:11;96170.44;;;17.47;66.39
48386;BME280;34644;47.964;7.982;2023-10-31T22:27:11;96170.22;;;17.43;66.28
48386;BME280;34644;47.964;7.982;2023-10-31T22:34:11;96169.16;;;17.44;66.33
48386;BME280;34644;47.964;7.982;2023-10-31T22:41:11;96168.34;;;17.44;66.34
48386;BME280;34644;47.964;7.982;2023-10-31T22:48:12;96175.06;;;17.41;66.32
48386;BME280;34644;47.964;7.982;2023-10-31T22:55:13;96160.94;;;17.41;66.31
48386;BME280;34644;47.964;7.982;2023-10-31T23:02:13;96168.63;;;17.42;66.29
48386;BME280;34644;47.964;7.982;2023-10-31T23:09:13;96160.63;;;17.42;66.37
48386;BME280;34644;47.964;7.982;2023-10-31T23:16:15;96154.31;;;17.38;66.47
48386;BME280;34644;47.964;7.982;2023-10-31T23:23:15;96159.66;;;17.38;66.41
48386;BME280;34644;47.964;7.982;2023-10-31T23:30:15;96152.81;;;17.32;66.65
48386;BME280;34644;47.964;7.982;2023-10-31T23:37:16;96157.31;;;17.31;66.68
48386;BME280;34644;47.964;7.982;2023-10-31T23:44:16;96139.78;;;17.30;66.56
48386;BME280;34644;47.964;7.982;2023-10-31T23:51:20;96138.75;;;17.26;66.74
48386;BME280;34644;47.964;7.982;2023-10-31T23:58:20;96149.69;;;17.25;66.91
